Time;durP1;ratioP1;P1;durP2;ratioP2;P2;SDS_P1;SDS_P2;PMS_P1;PMS_P2;Temp;Humidity;BMP_temperature;BMP_pressure;BME280_temperature;BME280_humidity;BME280_pressure;Samples;Min_cycle;Max_cycle;Signal;HPM_P1;HPM_P2
2022/07/30 00:01:03;;;;;;;12.68;7.95;;;;;;;;;;5044207;28;20389;-63
2022/07/30 00:03:29;;;;;;;11.40;7.88;;;;;;;;;;5047416;28;20394;-63
2022/07/30 00:05:55;;;;;;;13.50;8.27;;;;;;;;;;5041007;28;20024;-63
2022/07/30 00:08:21;;;;;;;10.70;8.23;;;;;;;;;;5051231;28;20033;-63
2022/07/30 00:10:47;;;;;;;14.35;7.35;;;;;;;;;;5046698;28;20033;-63
2022/07/30 00:13:13;;;;;;;12.68;7.47;;;;;;;;;;5034276;28;20021;-64
2022/07/30 00:15:38;;;;;;;11.82;6.97;;;;;;;;;;5046603;28;20037;-63
2022/07/30 00:18:04;;;;;;;11.30;6.45;;;;;;;;;;5025849;28;20052;-63
2022/07/30 00:20:29;;;;;;;10.43;6.53;;;;;;;;;;5051382;28;20083;-63
2022/07/30 00:22:55;;;;;;;8.43;6.40;;;;;;;;;;5035281;28;20043;-63
2022/07/30 00:25:21;;;;;;;9.75;7.20;;;;;;;;;;5051896;28;20036;-63
2022/07/30 00:27:46;;;;;;;11.68;6.63;;;;;;;;;;5046235;28;20616;-63
2022/07/30 00:30:12;;;;;;;11.32;7.30;;;;;;;;;;5052594;28;20061;-63
2022/07/30 00:32:38;;;;;;;11.02;7.03;;;;;;;;;;5035486;28;20072;-64
2022/07/30 00:35:03;;;;;;;12.90;6.97;;;;;;;;;;5047685;28;20029;-63
2022/07/30 00:37:29;;;;;;;10.90;6.85;;;;;;;;;;5013893;28;20092;-64
2022/07/30 00:39:54;;;;;;;12.23;7.28;;;;;;;;;;5033017;28;20115;-63
2022/07/30 00:42:24;;;;;;;11.32;7.30;;;;;;;;;;5052263;28;20036;-63
2022/07/30 00:44:53;;;;;;;12.93;7.47;;;;;;;;;;5016154;28;20029;-63
2022/07/30 00:47:19;;;;;;;11.48;7.53;;;;;;;;;;5039213;28;20040;-63
2022/07/30 00:49:45;;;;;;;11.68;7.88;;;;;;;;;;5048854;28;20102;-63
2022/07/30 00:52:11;;;;;;;13.60;8.25;;;;;;;;;;5050939;28;20448;-62
2022/07/30 00:54:36;;;;;;;12.70;7.82;;;;;;;;;;5031814;28;20033;-63
2022/07/30 00:57:02;;;;;;;11.98;7.63;;;;;;;;;;5049485;28;20053;-63
2022/07/30 00:59:27;;;;;;;12.13;7.57;;;;;;;;;;5042976;28;20025;-63
2022/07/30 01:01:53;;;;;;;10.82;7.20;;;;;;;;;;5031499;28;20068;-63
2022/07/30 01:04:19;;;;;;;13.75;8.13;;;;;;;;;;5031465;28;20389;-64
2022/07/30 01:06:44;;;;;;;12.60;8.23;;;;;;;;;;5049177;28;20021;-64
2022/07/30 01:09:10;;;;;;;10.23;7.88;;;;;;;;;;5035317;28;20436;-63
2022/07/30 01:11:37;;;;;;;9.90;8.13;;;;;;;;;;5031157;28;20501;-63
2022/07/30 01:14:05;;;;;;;11.70;8.13;;;;;;;;;;5031187;28;20466;-62
2022/07/30 01:16:32;;;;;;;12.43;8.00;;;;;;;;;;5031390;28;20037;-63
2022/07/30 01:21:47;;;;;;;12.05;7.32;;;;;;;;;;5036843;28;20050;-63
2022/07/30 01:24:27;;;;;;;10.48;7.85;;;;;;;;;;5043951;28;20035;-62
2022/07/30 01:26:54;;;;;;;12.23;7.93;;;;;;;;;;5047504;28;20041;-62
2022/07/30 01:29:21;;;;;;;12.57;8.23;;;;;;;;;;5033581;28;20035;-63
2022/07/30 01:31:49;;;;;;;11.20;7.53;;;;;;;;;;5041443;28;20033;-64
2022/07/30 01:34:16;;;;;;;11.88;8.07;;;;;;;;;;5031353;28;20029;-63
2022/07/30 01:36:44;;;;;;;10.88;7.65;;;;;;;;;;5012206;28;20081;-63
2022/07/30 01:39:10;;;;;;;11.23;8.00;;;;;;;;;;5031536;28;20112;-63
2022/07/30 01:41:37;;;;;;;10.02;7.78;;;;;;;;;;5040298;28;20033;-63
2022/07/30 01:44:05;;;;;;;13.88;8.30;;;;;;;;;;5033651;28;20029;-63
2022/07/30 01:46:31;;;;;;;12.35;8.45;;;;;;;;;;5014115;28;20033;-63
2022/07/30 01:48:58;;;;;;;14.77;8.25;;;;;;;;;;5018042;28;20355;-63
2022/07/30 01:51:23;;;;;;;13.95;8.30;;;;;;;;;;5051369;28;20055;-63
2022/07/30 01:53:50;;;;;;;11.50;8.48;;;;;;;;;;5035647;28;20033;-64
2022/07/30 01:56:18;;;;;;;14.20;8.40;;;;;;;;;;5029924;28;20076;-64
2022/07/30 01:58:47;;;;;;;15.65;8.40;;;;;;;;;;5028870;28;20128;-64
2022/07/30 02:01:12;;;;;;;13.60;8.77;;;;;;;;;;5039880;28;20033;-64
2022/07/30 02:03:38;;;;;;;12.63;8.38;;;;;;;;;;5033598;28;20032;-64
2022/07/30 02:06:12;;;;;;;12.80;8.50;;;;;;;;;;5050943;28;20048;-63
2022/07/30 02:08:42;;;;;;;13.30;8.40;;;;;;;;;;5044668;28;20037;-64
2022/07/30 02:11:09;;;;;;;13.93;8.25;;;;;;;;;;5049239;28;20112;-64
2022/07/30 02:13:45;;;;;;;12.80;8.52;;;;;;;;;;5039421;28;20030;-63
2022/07/30 02:16:16;;;;;;;12.50;8.18;;;;;;;;;;5034863;28;20040;-62
2022/07/30 02:18:57;;;;;;;14.20;9.10;;;;;;;;;;5050316;28;20108;-63
2022/07/30 02:21:23;;;;;;;;;;;;;;;;;;5046864;28;20085;-62
2022/07/30 02:23:50;;;;;;;13.65;9.30;;;;;;;;;;5046022;28;20382;-62
2022/07/30 02:26:21;;;;;;;13.48;8.82;;;;;;;;;;5030472;28;20068;-62
2022/07/30 02:28:51;;;;;;;15.35;9.88;;;;;;;;;;5025093;28;20044;-62
2022/07/30 02:31:19;;;;;;;12.65;9.77;;;;;;;;;;5035977;28;20520;-62
2022/07/30 02:33:48;;;;;;;14.35;9.15;;;;;;;;;;5029511;28;20037;-62
2022/07/30 02:36:14;;;;;;;13.98;9.43;;;;;;;;;;5048279;28;20041;-63
2022/07/30 02:38:41;;;;;;;12.95;9.80;;;;;;;;;;5050167;28;20029;-63
2022/07/30 02:41:10;;;;;;;11.82;9.57;;;;;;;;;;5047201;28;20198;-63
2022/07/30 02:43:38;;;;;;;12.43;9.90;;;;;;;;;;5044742;28;20103;-63
2022/07/30 02:46:05;;;;;;;11.73;9.40;;;;;;;;;;5032902;28;20087;-63
2022/07/30 02:48:32;;;;;;;17.67;9.65;;;;;;;;;;5037079;28;20037;-63
2022/07/30 02:50:59;;;;;;;11.57;9.52;;;;;;;;;;5011967;28;20095;-63
2022/07/30 02:53:26;;;;;;;12.80;9.45;;;;;;;;;;5029727;28;20061;-62
2022/07/30 02:55:54;;;;;;;12.48;9.15;;;;;;;;;;5027027;28;20038;-63
2022/07/30 02:58:23;;;;;;;11.05;8.82;;;;;;;;;;5048377;28;20079;-63
2022/07/30 03:00:52;;;;;;;14.15;9.52;;;;;;;;;;5049802;28;20116;-64
2022/07/30 03:03:19;;;;;;;13.45;9.30;;;;;;;;;;5039392;28;20320;-62
2022/07/30 03:05:48;;;;;;;12.80;9.45;;;;;;;;;;5029310;28;20037;-64
2022/07/30 03:08:15;;;;;;;21.20;10.35;;;;;;;;;;5033651;28;20094;-65
2022/07/30 03:10:43;;;;;;;13.35;9.80;;;;;;;;;;5039818;28;20517;-63
2022/07/30 03:13:11;;;;;;;15.25;10.68;;;;;;;;;;5033179;28;20042;-63
2022/07/30 03:15:42;;;;;;;14.45;10.52;;;;;;;;;;5043382;28;20053;-63
2022/07/30 03:18:10;;;;;;;15.05;11.43;;;;;;;;;;5037346;28;20393;-63
2022/07/30 03:20:37;;;;;;;13.48;11.10;;;;;;;;;;5048857;28;20053;-63
2022/07/30 03:23:03;;;;;;;16.83;11.27;;;;;;;;;;5046733;28;20473;-62
2022/07/30 03:25:30;;;;;;;18.10;11.48;;;;;;;;;;5028762;28;20037;-62
2022/07/30 03:27:58;;;;;;;15.15;11.68;;;;;;;;;;5033182;28;20037;-63
2022/07/30 03:30:24;;;;;;;15.68;12.20;;;;;;;;;;5035105;28;20035;-63
2022/07/30 03:32:52;;;;;;;18.42;12.40;;;;;;;;;;5031147;28;20355;-63
2022/07/30 03:35:18;;;;;;;15.77;12.15;;;;;;;;;;5031868;28;21718;-63
2022/07/30 03:37:44;;;;;;;15.23;12.07;;;;;;;;;;5032306;28;20033;-63
2022/07/30 03:40:10;;;;;;;20.17;12.43;;;;;;;;;;5016023;28;20033;-63
2022/07/30 03:42:36;;;;;;;18.50;12.30;;;;;;;;;;5049974;28;20025;-63
2022/07/30 03:45:05;;;;;;;17.38;12.32;;;;;;;;;;5035214;28;20607;-63
2022/07/30 03:47:32;;;;;;;18.63;12.57;;;;;;;;;;5033930;28;20030;-63
2022/07/30 03:49:59;;;;;;;16.95;12.73;;;;;;;;;;5031594;28;20045;-63
2022/07/30 03:52:26;;;;;;;19.30;12.57;;;;;;;;;;5033037;28;20043;-63
2022/07/30 03:54:52;;;;;;;17.65;12.95;;;;;;;;;;5032309;28;20037;-63
2022/07/30 03:57:18;;;;;;;19.38;13.40;;;;;;;;;;5033376;28;20057;-63
2022/07/30 03:59:45;;;;;;;18.35;13.20;;;;;;;;;;5030526;28;20068;-63
2022/07/30 04:02:11;;;;;;;20.38;13.88;;;;;;;;;;5041856;28;20036;-63
2022/07/30 04:04:42;;;;;;;17.08;13.68;;;;;;;;;;5052417;28;20025;-63
2022/07/30 04:07:08;;;;;;;18.10;14.23;;;;;;;;;;5039364;28;20051;-63
2022/07/30 04:09:34;;;;;;;19.77;14.20;;;;;;;;;;5032283;28;20389;-62
2022/07/30 04:11:59;;;;;;;20.15;13.65;;;;;;;;;;5031938;28;20934;-63
2022/07/30 04:14:25;;;;;;;18.02;14.20;;;;;;;;;;5043448;28;20082;-62
2022/07/30 04:17:00;;;;;;;18.48;14.50;;;;;;;;;;5041592;28;20099;-63
2022/07/30 04:19:37;;;;;;;20.02;13.85;;;;;;;;;;5035843;28;20028;-63
2022/07/30 04:22:04;;;;;;;19.90;13.98;;;;;;;;;;5046348;28;20104;-63
2022/07/30 04:24:31;;;;;;;21.30;13.95;;;;;;;;;;5050916;28;20029;-63
2022/07/30 04:26:59;;;;;;;20.08;14.40;;;;;;;;;;5040034;28;20033;-64
2022/07/30 04:29:24;;;;;;;19.35;14.48;;;;;;;;;;5053010;28;20115;-63
2022/07/30 04:31:52;;;;;;;19.00;15.30;;;;;;;;;;5051203;28;20442;-63
2022/07/30 04:34:17;;;;;;;18.27;15.05;;;;;;;;;;5039889;28;20045;-62
2022/07/30 04:36:43;;;;;;;22.88;15.98;;;;;;;;;;5037309;28;20033;-63
2022/07/30 04:39:08;;;;;;;23.30;16.10;;;;;;;;;;5032703;28;20470;-63
2022/07/30 04:41:34;;;;;;;23.58;16.25;;;;;;;;;;5037219;28;20029;-63
2022/07/30 04:44:00;;;;;;;19.98;14.77;;;;;;;;;;5048772;28;20073;-64
2022/07/30 04:46:25;;;;;;;21.45;15.13;;;;;;;;;;5032100;28;20038;-63
2022/07/30 04:48:51;;;;;;;24.58;16.98;;;;;;;;;;5021018;28;20064;-64
2022/07/30 04:51:26;;;;;;;20.55;15.50;;;;;;;;;;5023744;28;20026;-64
2022/07/30 04:53:53;;;;;;;21.73;15.13;;;;;;;;;;5039625;28;20029;-63
2022/07/30 04:56:20;;;;;;;24.38;16.65;;;;;;;;;;5025411;28;20057;-62
2022/07/30 04:58:45;;;;;;;24.40;17.15;;;;;;;;;;5031513;28;20112;-63
2022/07/30 05:01:16;;;;;;;26.05;16.98;;;;;;;;;;5031899;28;20168;-63
2022/07/30 05:03:42;;;;;;;24.42;17.42;;;;;;;;;;5033559;28;20038;-62
2022/07/30 05:06:11;;;;;;;25.27;16.50;;;;;;;;;;5033918;28;20045;-63
2022/07/30 05:08:37;;;;;;;25.08;16.63;;;;;;;;;;5048532;28;20458;-62
2022/07/30 05:11:03;;;;;;;25.42;16.90;;;;;;;;;;5042618;28;20026;-63
2022/07/30 05:13:28;;;;;;;24.70;17.77;;;;;;;;;;5032108;28;20481;-63
2022/07/30 05:15:54;;;;;;;26.63;18.00;;;;;;;;;;5031835;28;20056;-63
2022/07/30 05:18:19;;;;;;;29.30;17.88;;;;;;;;;;5051422;28;20048;-63
2022/07/30 05:20:44;;;;;;;35.50;20.75;;;;;;;;;;5050532;28;20426;-63
2022/07/30 05:23:10;;;;;;;29.77;19.13;;;;;;;;;;5032599;28;20039;-70
2022/07/30 05:25:35;;;;;;;26.70;18.27;;;;;;;;;;5031451;28;20022;-70
2022/07/30 05:28:01;;;;;;;26.80;18.95;;;;;;;;;;5031398;28;20382;-71
2022/07/30 05:30:26;;;;;;;29.48;19.13;;;;;;;;;;5031406;28;20025;-71
2022/07/30 05:32:52;;;;;;;27.40;18.98;;;;;;;;;;5031220;28;20037;-71
2022/07/30 05:35:17;;;;;;;28.42;19.85;;;;;;;;;;5032180;28;20506;-71
2022/07/30 05:37:43;;;;;;;27.80;19.17;;;;;;;;;;5031299;28;20096;-72
2022/07/30 05:40:09;;;;;;;28.70;18.27;;;;;;;;;;5029167;28;20512;-73
2022/07/30 05:42:34;;;;;;;24.95;18.17;;;;;;;;;;5031933;28;20546;-72
2022/07/30 05:44:59;;;;;;;27.50;18.17;;;;;;;;;;5031932;28;20120;-72
2022/07/30 05:47:25;;;;;;;26.15;17.55;;;;;;;;;;5026451;28;20025;-72
2022/07/30 05:49:51;;;;;;;27.00;18.02;;;;;;;;;;5031104;28;20120;-71
2022/07/30 05:52:17;;;;;;;27.50;17.60;;;;;;;;;;5030776;28;20025;-71
2022/07/30 05:54:44;;;;;;;25.17;17.80;;;;;;;;;;5031701;28;20462;-72
2022/07/30 05:57:10;;;;;;;24.17;17.13;;;;;;;;;;5012409;28;20148;-72
2022/07/30 05:59:35;;;;;;;28.83;18.77;;;;;;;;;;5031579;28;20104;-72
2022/07/30 06:02:01;;;;;;;25.75;17.77;;;;;;;;;;5029517;28;20167;-72
2022/07/30 06:04:28;;;;;;;27.67;18.08;;;;;;;;;;5031477;28;20072;-73
2022/07/30 06:06:53;;;;;;;29.98;18.08;;;;;;;;;;5033076;28;20521;-73
2022/07/30 06:09:19;;;;;;;24.25;18.05;;;;;;;;;;5049615;28;20163;-73
2022/07/30 06:11:44;;;;;;;26.60;17.63;;;;;;;;;;5045601;28;20124;-72
2022/07/30 06:14:09;;;;;;;26.60;17.20;;;;;;;;;;5035879;28;20039;-72
2022/07/30 06:16:35;;;;;;;25.08;17.00;;;;;;;;;;5039769;28;20405;-71
2022/07/30 06:19:00;;;;;;;24.33;17.17;;;;;;;;;;5041597;28;20061;-72
2022/07/30 06:21:26;;;;;;;25.13;17.20;;;;;;;;;;5048972;28;20374;-73
2022/07/30 06:23:51;;;;;;;21.92;15.88;;;;;;;;;;5026878;28;20033;-73
2022/07/30 06:26:16;;;;;;;22.55;16.38;;;;;;;;;;5038769;28;20025;-75
2022/07/30 06:28:42;;;;;;;23.15;16.40;;;;;;;;;;5034061;28;20041;-71
2022/07/30 06:31:07;;;;;;;21.75;15.63;;;;;;;;;;5050364;28;20033;-72
2022/07/30 06:33:33;;;;;;;22.65;16.55;;;;;;;;;;5031068;28;20029;-71
2022/07/30 06:35:58;;;;;;;22.63;16.40;;;;;;;;;;5033517;28;20041;-72
2022/07/30 06:38:23;;;;;;;21.75;15.57;;;;;;;;;;5049918;28;20029;-72
2022/07/30 06:40:49;;;;;;;23.65;16.23;;;;;;;;;;5032609;28;20029;-73
2022/07/30 06:43:14;;;;;;;23.70;16.48;;;;;;;;;;5031075;28;20115;-72
2022/07/30 06:45:40;;;;;;;22.77;16.50;;;;;;;;;;5049461;28;20025;-72
2022/07/30 06:48:05;;;;;;;23.77;15.30;;;;;;;;;;5053043;28;20482;-71
2022/07/30 06:50:31;;;;;;;25.70;16.25;;;;;;;;;;5053139;28;20025;-71
2022/07/30 06:52:56;;;;;;;25.08;16.23;;;;;;;;;;5052854;28;20473;-70
2022/07/30 06:55:22;;;;;;;21.85;15.68;;;;;;;;;;5054627;28;20462;-70
2022/07/30 06:57:48;;;;;;;23.67;15.88;;;;;;;;;;5039936;28;20037;-72
2022/07/30 07:00:14;;;;;;;23.77;16.42;;;;;;;;;;5032728;28;20534;-72
2022/07/30 07:02:41;;;;;;;23.90;16.67;;;;;;;;;;5037622;28;20034;-73
2022/07/30 07:05:06;;;;;;;23.95;15.75;;;;;;;;;;5041799;28;20033;-72
2022/07/30 07:07:33;;;;;;;25.75;16.58;;;;;;;;;;5053793;28;20052;-73
2022/07/30 07:09:59;;;;;;;25.33;16.48;;;;;;;;;;5051574;28;20033;-72
2022/07/30 07:12:24;;;;;;;24.23;17.02;;;;;;;;;;5052158;28;20541;-72
2022/07/30 07:14:50;;;;;;;26.27;16.67;;;;;;;;;;5046480;28;20035;-72
2022/07/30 07:17:15;;;;;;;24.88;16.88;;;;;;;;;;5033764;28;20033;-74
2022/07/30 07:19:41;;;;;;;25.70;17.35;;;;;;;;;;5034825;28;20037;-73
2022/07/30 07:22:06;;;;;;;25.50;16.85;;;;;;;;;;5043291;28;20029;-74
2022/07/30 07:24:31;;;;;;;28.33;17.10;;;;;;;;;;5051324;28;20113;-74
2022/07/30 07:26:57;;;;;;;26.92;17.42;;;;;;;;;;5038322;28;20736;-73
2022/07/30 07:29:23;;;;;;;27.17;18.40;;;;;;;;;;5054303;28;20033;-73
2022/07/30 07:31:48;;;;;;;23.13;16.50;;;;;;;;;;5041676;28;20037;-72
2022/07/30 07:34:14;;;;;;;22.45;15.90;;;;;;;;;;5033592;28;20931;-72
2022/07/30 07:36:39;;;;;;;22.85;16.45;;;;;;;;;;5045847;28;20032;-73
2022/07/30 07:39:08;;;;;;;23.00;16.40;;;;;;;;;;5053136;28;20377;-73
2022/07/30 07:41:38;;;;;;;23.45;16.08;;;;;;;;;;5025032;28;20029;-72
2022/07/30 07:44:04;;;;;;;21.25;14.55;;;;;;;;;;5033863;28;20048;-72
2022/07/30 07:46:30;;;;;;;17.75;13.70;;;;;;;;;;5043728;28;20029;-73
2022/07/30 07:48:55;;;;;;;20.38;14.70;;;;;;;;;;5053075;28;20036;-73
2022/07/30 07:51:21;;;;;;;25.67;18.02;;;;;;;;;;5052144;28;20055;-73
2022/07/30 07:53:46;;;;;;;25.27;17.63;;;;;;;;;;5049757;28;20401;-72
2022/07/30 07:56:12;;;;;;;28.67;18.77;;;;;;;;;;5032704;28;20041;-72
2022/07/30 07:58:38;;;;;;;27.73;17.75;;;;;;;;;;5034486;28;20041;-71
2022/07/30 08:01:03;;;;;;;22.90;15.75;;;;;;;;;;5038468;28;20090;-73
2022/07/30 08:03:29;;;;;;;21.52;14.82;;;;;;;;;;5033347;28;20382;-73
2022/07/30 08:05:54;;;;;;;19.02;13.93;;;;;;;;;;5047494;28;20563;-74
2022/07/30 08:08:20;;;;;;;24.20;15.90;;;;;;;;;;5032252;28;20029;-73
2022/07/30 08:10:46;;;;;;;23.85;17.98;;;;;;;;;;5052824;28;20037;-74
2022/07/30 08:13:11;;;;;;;26.40;19.98;;;;;;;;;;5039037;28;20470;-73
2022/07/30 08:15:37;;;;;;;32.70;23.58;;;;;;;;;;5033495;28;20032;-72
2022/07/30 08:18:02;;;;;;;39.42;26.95;;;;;;;;;;5031906;28;20374;-73
2022/07/30 08:20:28;;;;;;;27.92;18.48;;;;;;;;;;5028290;28;20462;-72
2022/07/30 08:22:53;;;;;;;29.55;19.27;;;;;;;;;;5052134;28;20094;-72
2022/07/30 08:25:19;;;;;;;25.05;17.10;;;;;;;;;;5048309;28;20385;-72
2022/07/30 08:27:44;;;;;;;29.70;19.05;;;;;;;;;;5033060;28;20033;-73
2022/07/30 08:30:10;;;;;;;35.28;24.05;;;;;;;;;;5050483;28;20041;-73
2022/07/30 08:32:36;;;;;;;34.28;22.80;;;;;;;;;;5051905;28;20037;-72
2022/07/30 08:35:03;;;;;;;37.10;24.27;;;;;;;;;;5050355;28;20124;-73
2022/07/30 08:37:29;;;;;;;38.00;25.98;;;;;;;;;;5047053;28;20090;-73
2022/07/30 08:39:54;;;;;;;33.30;22.92;;;;;;;;;;5052670;28;20036;-74
2022/07/30 08:42:21;;;;;;;31.20;21.90;;;;;;;;;;5050862;28;20060;-73
2022/07/30 08:44:47;;;;;;;27.70;20.60;;;;;;;;;;5053158;28;20033;-73
2022/07/30 08:47:17;;;;;;;29.40;20.20;;;;;;;;;;5037622;28;20040;-73
2022/07/30 08:49:44;;;;;;;27.13;19.65;;;;;;;;;;5039268;28;20048;-73
2022/07/30 08:52:10;;;;;;;23.52;17.90;;;;;;;;;;5042708;28;20112;-72
2022/07/30 08:54:35;;;;;;;24.88;16.80;;;;;;;;;;5032783;28;20167;-73
2022/07/30 08:57:01;;;;;;;19.13;13.32;;;;;;;;;;5039507;28;20060;-74
2022/07/30 08:59:27;;;;;;;21.95;15.82;;;;;;;;;;5030806;28;20044;-74
2022/07/30 09:01:52;;;;;;;20.05;14.45;;;;;;;;;;5032081;28;20026;-74
2022/07/30 09:04:18;;;;;;;19.90;15.55;;;;;;;;;;5031015;28;20126;-72
2022/07/30 09:06:44;;;;;;;25.00;15.02;;;;;;;;;;5043352;28;20037;-73
2022/07/30 09:09:10;;;;;;;18.23;11.95;;;;;;;;;;5034647;28;20033;-75
2022/07/30 09:11:36;;;;;;;17.30;10.57;;;;;;;;;;5043406;28;20032;-76
2022/07/30 09:14:13;;;;;;;19.05;12.15;;;;;;;;;;5048445;28;20033;-74
2022/07/30 09:16:39;;;;;;;19.80;12.48;;;;;;;;;;5045582;28;20166;-73
2022/07/30 09:19:16;;;;;;;16.38;11.35;;;;;;;;;;5049533;28;20033;-72
2022/07/30 09:21:57;;;;;;;19.38;10.73;;;;;;;;;;5031380;28;20401;-73
2022/07/30 09:24:22;;;;;;;16.40;10.40;;;;;;;;;;5034148;28;20477;-72
2022/07/30 09:27:01;;;;;;;15.55;10.63;;;;;;;;;;5043545;28;20029;-72
2022/07/30 09:29:30;;;;;;;18.48;9.98;;;;;;;;;;5034796;28;20039;-73
2022/07/30 09:32:03;;;;;;;17.70;10.77;;;;;;;;;;5048568;28;20087;-73
2022/07/30 09:34:33;;;;;;;14.98;10.73;;;;;;;;;;5032050;28;20425;-73
2022/07/30 09:37:15;;;;;;;17.45;10.77;;;;;;;;;;5042634;28;20037;-73
2022/07/30 09:39:41;;;;;;;16.75;11.25;;;;;;;;;;5049900;28;20160;-72
2022/07/30 09:42:21;;;;;;;18.77;11.35;;;;;;;;;;5031451;28;20339;-72
2022/07/30 09:44:47;;;;;;;20.48;10.45;;;;;;;;;;5032857;28;20037;-71
2022/07/30 09:47:33;;;;;;;15.18;10.48;;;;;;;;;;5030696;28;20104;-71
2022/07/30 09:50:18;;;;;;;15.40;10.63;;;;;;;;;;5036290;28;20462;-72
2022/07/30 09:52:46;;;;;;;15.48;10.80;;;;;;;;;;5038229;28;20470;-72
2022/07/30 09:55:13;;;;;;;19.30;9.77;;;;;;;;;;5051010;28;20043;-71
2022/07/30 09:57:56;;;;;;;15.70;10.50;;;;;;;;;;5050972;28;20037;-71
2022/07/30 10:00:24;;;;;;;16.98;11.77;;;;;;;;;;5041339;28;20682;-71
2022/07/30 10:02:50;;;;;;;16.17;11.85;;;;;;;;;;5031880;28;20037;-72
2022/07/30 10:05:20;;;;;;;17.70;11.52;;;;;;;;;;5048919;28;20404;-70
2022/07/30 10:07:53;;;;;;;15.07;11.32;;;;;;;;;;5031490;28;20029;-71
2022/07/30 10:10:27;;;;;;;16.02;10.82;;;;;;;;;;5014827;28;20048;-71
2022/07/30 10:12:57;;;;;;;16.02;10.85;;;;;;;;;;5033917;28;20112;-70
2022/07/30 10:15:26;;;;;;;14.18;10.15;;;;;;;;;;5034131;28;20030;-70
2022/07/30 10:17:52;;;;;;;13.63;8.88;;;;;;;;;;5046982;28;20044;-70
2022/07/30 10:20:18;;;;;;;13.52;8.82;;;;;;;;;;5051769;28;20039;-70
2022/07/30 10:22:44;;;;;;;13.90;8.95;;;;;;;;;;5039562;28;20033;-69
2022/07/30 10:25:10;;;;;;;15.48;9.10;;;;;;;;;;5047000;28;20033;-72
2022/07/30 10:27:37;;;;;;;12.20;8.30;;;;;;;;;;5045076;28;20136;-70
2022/07/30 10:30:03;;;;;;;13.68;8.40;;;;;;;;;;5035108;28;20456;-70
2022/07/30 10:32:28;;;;;;;13.38;7.88;;;;;;;;;;5040487;28;20474;-71
2022/07/30 10:34:54;;;;;;;14.05;8.80;;;;;;;;;;5044183;28;20173;-70
2022/07/30 10:37:22;;;;;;;14.82;8.45;;;;;;;;;;5036864;28;20072;-69
2022/07/30 10:40:17;;;;;;;12.50;7.47;;;;;;;;;;5036803;28;20029;-70
2022/07/30 10:43:08;;;;;;;10.95;7.63;;;;;;;;;;5034800;28;20120;-71
2022/07/30 10:46:03;;;;;;;11.48;7.22;;;;;;;;;;5033307;28;20108;-66
2022/07/30 10:48:32;;;;;;;7.60;5.63;;;;;;;;;;5033667;28;20496;-66
2022/07/30 10:50:58;;;;;;;9.23;5.00;;;;;;;;;;5054402;28;20478;-66
2022/07/30 10:53:33;;;;;;;10.02;5.75;;;;;;;;;;5040205;28;20036;-66
2022/07/30 10:56:21;;;;;;;8.40;5.32;;;;;;;;;;5047472;28;20053;-65
2022/07/30 10:58:57;;;;;;;7.30;4.95;;;;;;;;;;5050407;28;20044;-65
2022/07/30 11:01:22;;;;;;;8.88;5.28;;;;;;;;;;5050156;28;20029;-65
2022/07/30 11:04:20;;;;;;;9.70;5.15;;;;;;;;;;5040761;28;20166;-65
2022/07/30 11:06:46;;;;;;;8.82;4.93;;;;;;;;;;5041103;28;20033;-64
2022/07/30 11:09:37;;;;;;;11.65;4.38;;;;;;;;;;5048465;28;20164;-66
2022/07/30 11:12:05;;;;;;;7.47;4.50;;;;;;;;;;5049860;28;20116;-66
2022/07/30 11:14:51;;;;;;;7.30;4.53;;;;;;;;;;5044874;28;20048;-66
2022/07/30 11:17:17;;;;;;;11.30;4.80;;;;;;;;;;5025560;28;20390;-65
2022/07/30 11:20:01;;;;;;;6.70;4.43;;;;;;;;;;5035107;28;20099;-65
2022/07/30 11:22:37;;;;;;;8.85;4.43;;;;;;;;;;5041995;28;20184;-66
2022/07/30 11:25:04;;;;;;;8.05;4.30;;;;;;;;;;5050262;28;20033;-65
2022/07/30 11:27:49;;;;;;;6.47;4.10;;;;;;;;;;5051016;28;20131;-65
2022/07/30 11:30:14;;;;;;;7.85;4.38;;;;;;;;;;5043077;28;20433;-65
2022/07/30 11:32:47;;;;;;;8.50;4.00;;;;;;;;;;5045234;28;20068;-66
2022/07/30 11:35:14;;;;;;;8.82;3.72;;;;;;;;;;5051107;28;20032;-66
2022/07/30 11:37:58;;;;;;;6.40;3.38;;;;;;;;;;5052520;28;20037;-66
2022/07/30 11:40:51;;;;;;;9.43;3.80;;;;;;;;;;5030893;28;20028;-66
2022/07/30 11:43:28;;;;;;;7.40;3.20;;;;;;;;;;5041614;28;20045;-66
2022/07/30 11:46:14;;;;;;;4.55;3.10;;;;;;;;;;5048734;28;20035;-66
2022/07/30 11:49:09;;;;;;;8.30;3.40;;;;;;;;;;5047941;28;20108;-66
2022/07/30 11:51:44;;;;;;;5.38;3.13;;;;;;;;;;5047054;28;20136;-66
2022/07/30 11:54:11;;;;;;;7.78;3.10;;;;;;;;;;5032643;28;20048;-67
2022/07/30 11:57:00;;;;;;;6.10;2.95;;;;;;;;;;5032941;28;20080;-66
2022/07/30 11:59:25;;;;;;;5.10;2.60;;;;;;;;;;5033187;28;20041;-67
2022/07/30 12:01:55;;;;;;;4.40;2.78;;;;;;;;;;5053788;28;20025;-66
2022/07/30 12:04:23;;;;;;;4.13;2.60;;;;;;;;;;5051890;28;20040;-66
2022/07/30 12:06:48;;;;;;;4.22;2.40;;;;;;;;;;5041391;28;20037;-66
2022/07/30 12:09:22;;;;;;;3.65;2.40;;;;;;;;;;5032576;28;20886;-67
2022/07/30 12:11:47;;;;;;;4.93;2.40;;;;;;;;;;5040845;28;20025;-67
2022/07/30 12:14:13;;;;;;;4.03;2.33;;;;;;;;;;5039010;28;20044;-68
2022/07/30 12:16:41;;;;;;;5.82;2.40;;;;;;;;;;5034372;28;20112;-66
2022/07/30 12:19:07;;;;;;;4.30;2.30;;;;;;;;;;5017320;28;20462;-66
2022/07/30 12:21:33;;;;;;;4.15;2.20;;;;;;;;;;5014843;28;20041;-67
2022/07/30 12:24:06;;;;;;;4.90;2.38;;;;;;;;;;5032675;28;20074;-67
2022/07/30 12:26:33;;;;;;;5.70;2.70;;;;;;;;;;5031947;28;20061;-66
2022/07/30 12:29:04;;;;;;;5.85;2.10;;;;;;;;;;5048712;28;20448;-67
2022/07/30 12:31:30;;;;;;;3.50;2.40;;;;;;;;;;5012179;28;20061;-66
2022/07/30 12:33:55;;;;;;;4.82;2.25;;;;;;;;;;5045368;28;20118;-66
2022/07/30 12:36:32;;;;;;;3.72;2.33;;;;;;;;;;5051292;28;20458;-67
2022/07/30 12:38:58;;;;;;;5.00;2.70;;;;;;;;;;5043357;28;20025;-67
2022/07/30 12:41:44;;;;;;;6.18;2.45;;;;;;;;;;5032084;28;20067;-66
2022/07/30 12:44:30;;;;;;;5.38;2.40;;;;;;;;;;5030137;28;20049;-67
2022/07/30 12:46:55;;;;;;;6.47;2.30;;;;;;;;;;5048061;28;20041;-67
2022/07/30 12:49:27;;;;;;;2.90;2.15;;;;;;;;;;5036677;28;20036;-67
2022/07/30 12:51:53;;;;;;;6.00;2.78;;;;;;;;;;5046866;28;20044;-67
2022/07/30 12:54:19;;;;;;;7.35;2.30;;;;;;;;;;5038134;28;20041;-66
2022/07/30 12:56:58;;;;;;;5.57;2.40;;;;;;;;;;5049963;28;20053;-67
2022/07/30 12:59:24;;;;;;;5.32;2.30;;;;;;;;;;5036384;28;20390;-66
2022/07/30 13:01:51;;;;;;;3.83;2.38;;;;;;;;;;5038962;28;20052;-66
2022/07/30 13:04:16;;;;;;;5.15;2.00;;;;;;;;;;5041107;28;20048;-66
2022/07/30 13:06:42;;;;;;;3.92;2.15;;;;;;;;;;5049282;28;20381;-66
2022/07/30 13:09:20;;;;;;;7.40;2.20;;;;;;;;;;5038513;28;20029;-66
2022/07/30 13:11:46;;;;;;;6.53;2.67;;;;;;;;;;5044598;28;20391;-66
2022/07/30 13:14:12;;;;;;;4.63;2.00;;;;;;;;;;5050979;28;20029;-66
2022/07/30 13:16:39;;;;;;;5.88;2.00;;;;;;;;;;5049892;28;20028;-66
2022/07/30 13:19:05;;;;;;;3.78;2.10;;;;;;;;;;5051590;28;20033;-66
2022/07/30 13:21:32;;;;;;;3.97;2.00;;;;;;;;;;5042106;28;20836;-66
2022/07/30 13:23:59;;;;;;;4.32;1.90;;;;;;;;;;5044006;28;20040;-66
2022/07/30 13:26:24;;;;;;;5.68;1.98;;;;;;;;;;5040848;28;20064;-67
2022/07/30 13:28:49;;;;;;;3.17;1.92;;;;;;;;;;5032204;28;20033;-65
2022/07/30 13:31:15;;;;;;;2.55;1.80;;;;;;;;;;5036718;28;20533;-67
2022/07/30 13:33:41;;;;;;;3.08;1.95;;;;;;;;;;5051876;28;20442;-66
2022/07/30 13:36:06;;;;;;;4.20;2.00;;;;;;;;;;5048274;28;20037;-65
2022/07/30 13:38:32;;;;;;;4.90;2.00;;;;;;;;;;5050094;28;20037;-66
2022/07/30 13:40:58;;;;;;;6.38;2.17;;;;;;;;;;5041910;28;20077;-65
2022/07/30 13:43:24;;;;;;;4.15;2.10;;;;;;;;;;5030313;28;20030;-66
2022/07/30 13:45:50;;;;;;;5.90;2.20;;;;;;;;;;5032856;28;20049;-66
2022/07/30 13:48:16;;;;;;;2.50;2.00;;;;;;;;;;5031091;28;20056;-66
2022/07/30 13:50:42;;;;;;;5.07;2.28;;;;;;;;;;5039160;28;20478;-65
2022/07/30 13:53:09;;;;;;;2.90;1.90;;;;;;;;;;5051316;28;20025;-66
2022/07/30 13:55:36;;;;;;;3.35;2.00;;;;;;;;;;5043680;28;20153;-65
2022/07/30 13:58:02;;;;;;;3.10;2.15;;;;;;;;;;5050712;28;20059;-66
2022/07/30 14:00:31;;;;;;;3.45;1.98;;;;;;;;;;5048764;28;20041;-65
2022/07/30 14:02:58;;;;;;;4.10;2.10;;;;;;;;;;5040766;28;20104;-66
2022/07/30 14:05:23;;;;;;;3.63;2.22;;;;;;;;;;5041846;28;20529;-66
2022/07/30 14:07:49;;;;;;;3.42;2.05;;;;;;;;;;5036767;28;20117;-66
2022/07/30 14:10:14;;;;;;;3.92;1.92;;;;;;;;;;5033387;28;20128;-67
2022/07/30 14:12:40;;;;;;;4.35;2.00;;;;;;;;;;5044827;28;20048;-66
2022/07/30 14:15:08;;;;;;;5.85;2.30;;;;;;;;;;5048580;28;20025;-66
2022/07/30 14:17:33;;;;;;;3.85;2.00;;;;;;;;;;5037328;28;20454;-66
2022/07/30 14:19:58;;;;;;;4.10;2.00;;;;;;;;;;5036592;28;20116;-66
2022/07/30 14:22:24;;;;;;;13.23;2.13;;;;;;;;;;5048470;28;20059;-66
2022/07/30 14:24:49;;;;;;;2.58;1.80;;;;;;;;;;5047882;28;20028;-65
2022/07/30 14:27:17;;;;;;;5.60;2.50;;;;;;;;;;5050211;28;20039;-65
2022/07/30 14:29:42;;;;;;;4.30;2.08;;;;;;;;;;5049569;28;20036;-66
2022/07/30 14:32:07;;;;;;;2.83;2.00;;;;;;;;;;5048720;28;20037;-66
2022/07/30 14:34:33;;;;;;;8.32;2.00;;;;;;;;;;5022500;28;20475;-65
2022/07/30 14:36:58;;;;;;;4.10;2.15;;;;;;;;;;5040773;28;20112;-65